createdAt,value
2022-07-28T00:00:10.779Z,1.13
2022-07-28T00:02:37.769Z,1.23
2022-07-28T00:05:05.522Z,1.00
2022-07-28T00:07:32.647Z,1.05
2022-07-28T00:10:00.914Z,0.98
2022-07-28T00:12:28.498Z,1.00
2022-07-28T00:14:56.887Z,1.20
2022-07-28T00:17:23.827Z,1.15
2022-07-28T00:19:50.964Z,1.00
2022-07-28T00:22:18.910Z,1.35
2022-07-28T00:24:45.967Z,1.13
2022-07-28T00:27:19.146Z,0.98
2022-07-28T00:29:50.236Z,1.15
2022-07-28T00:32:19.314Z,0.80
2022-07-28T00:34:47.276Z,0.80
2022-07-28T00:37:15.164Z,1.00
2022-07-28T00:39:43.512Z,1.15
2022-07-28T00:42:10.915Z,0.88
2022-07-28T00:44:42.063Z,1.40
2022-07-28T00:47:09.466Z,1.45
2022-07-28T00:49:36.574Z,1.33
2022-07-28T00:52:05.936Z,1.20
2022-07-28T00:54:34.633Z,1.13
2022-07-28T00:57:01.837Z,1.08
2022-07-28T00:59:28.889Z,1.13
2022-07-28T01:01:56.378Z,1.10
2022-07-28T01:04:24.633Z,1.40
2022-07-28T01:07:08.220Z,0.98
2022-07-28T01:09:51.910Z,1.08
2022-07-28T01:12:26.803Z,1.10
2022-07-28T01:15:10.029Z,0.93
2022-07-28T01:17:58.862Z,0.80
2022-07-28T01:20:42.359Z,1.13
2022-07-28T01:23:11.954Z,1.02
2022-07-28T01:25:59.397Z,1.27
2022-07-28T01:28:55.840Z,1.10
2022-07-28T01:31:26.748Z,1.20
2022-07-28T01:34:00.039Z,1.27
2022-07-28T01:36:33.855Z,1.30
2022-07-28T01:39:02.040Z,1.23
2022-07-28T01:41:31.431Z,1.23
2022-07-28T01:44:13.750Z,1.17
2022-07-28T01:46:43.232Z,1.50
2022-07-28T01:49:10.988Z,1.30
2022-07-28T01:51:38.679Z,1.20
2022-07-28T01:54:07.155Z,1.60
2022-07-28T01:56:34.934Z,1.25
2022-07-28T01:59:07.037Z,1.10
2022-07-28T02:01:42.610Z,1.10
2022-07-28T02:04:11.814Z,1.10
2022-07-28T02:06:40.707Z,1.10
2022-07-28T02:09:09.226Z,0.98
2022-07-28T02:11:40.576Z,1.35
2022-07-28T02:14:19.380Z,1.35
2022-07-28T02:16:56.737Z,0.95
2022-07-28T02:19:24.877Z,0.98
2022-07-28T02:21:54.552Z,1.08
2022-07-28T02:24:28.359Z,1.13
2022-07-28T02:27:18.280Z,1.10
2022-07-28T02:29:53.790Z,1.20
2022-07-28T02:32:29.948Z,1.20
2022-07-28T02:35:09.773Z,1.00
2022-07-28T02:37:41.670Z,1.10
2022-07-28T02:40:15.796Z,1.13
2022-07-28T02:42:47.409Z,1.35
2022-07-28T02:45:16.731Z,1.10
2022-07-28T02:47:52.551Z,0.90
2022-07-28T02:50:24.950Z,1.38
2022-07-28T02:52:56.603Z,1.40
2022-07-28T02:55:24.564Z,1.25
2022-07-28T02:57:56.686Z,1.00
2022-07-28T03:00:25.776Z,1.17
2022-07-28T03:02:55.990Z,0.98
2022-07-28T03:05:23.979Z,1.05
2022-07-28T03:07:52.889Z,1.02
2022-07-28T03:10:34.030Z,1.20
2022-07-28T03:13:05.380Z,1.10
2022-07-28T03:15:32.843Z,1.23
2022-07-28T03:18:04.937Z,1.20
2022-07-28T03:20:32.760Z,1.30
2022-07-28T03:23:00.310Z,1.10
2022-07-28T03:25:39.739Z,1.10
2022-07-28T03:28:09.434Z,1.40
2022-07-28T03:30:42.718Z,1.30
2022-07-28T03:33:10.819Z,1.33
2022-07-28T03:35:45.020Z,1.40
2022-07-28T03:38:17.953Z,1.58
2022-07-28T03:40:47.121Z,1.23
2022-07-28T03:43:17.019Z,1.40
2022-07-28T03:45:46.458Z,1.33
2022-07-28T03:48:15.023Z,1.40
2022-07-28T03:50:42.844Z,1.10
2022-07-28T03:53:26.238Z,1.67
2022-07-28T03:55:53.924Z,1.00
2022-07-28T03:58:28.413Z,1.10
2022-07-28T04:00:56.255Z,1.50
2022-07-28T04:03:36.658Z,1.50
2022-07-28T04:06:11.338Z,1.05
2022-07-28T04:08:38.267Z,1.20
2022-07-28T04:11:05.742Z,1.20
2022-07-28T04:13:33.847Z,1.38
2022-07-28T04:16:01.604Z,1.30
2022-07-28T04:18:28.623Z,1.30
2022-07-28T04:20:58.132Z,1.50
2022-07-28T04:23:25.600Z,1.48
2022-07-28T04:25:52.696Z,1.33
2022-07-28T04:28:19.614Z,1.30
2022-07-28T04:30:46.634Z,1.30
2022-07-28T04:33:14.726Z,1.52
2022-07-28T04:35:43.428Z,1.42
2022-07-28T04:38:12.416Z,1.20
2022-07-28T04:40:40.477Z,1.45
2022-07-28T04:43:10.918Z,1.40
2022-07-28T04:45:39.104Z,1.30
2022-07-28T04:48:13.551Z,1.15
2022-07-28T04:50:42.194Z,1.20
2022-07-28T04:53:09.278Z,1.60
2022-07-28T04:55:38.702Z,1.42
2022-07-28T04:58:06.554Z,1.25
2022-07-28T05:00:36.286Z,1.08
2022-07-28T05:03:04.466Z,1.35
2022-07-28T05:05:31.538Z,1.50
2022-07-28T05:07:58.442Z,1.33
2022-07-28T05:10:25.419Z,1.70
2022-07-28T05:12:53.392Z,1.33
2022-07-28T05:15:20.795Z,1.30
2022-07-28T05:17:47.859Z,1.58
2022-07-28T05:20:14.872Z,1.38
2022-07-28T05:22:50.997Z,1.35
2022-07-28T05:25:20.999Z,1.25
2022-07-28T05:27:52.822Z,1.60
2022-07-28T05:30:20.531Z,1.48
2022-07-28T05:32:51.253Z,1.42
2022-07-28T05:35:18.625Z,1.40
2022-07-28T05:37:45.762Z,1.60
2022-07-28T05:40:16.718Z,1.55
2022-07-28T05:42:44.432Z,1.40
2022-07-28T05:45:15.934Z,1.60
2022-07-28T05:47:52.231Z,1.30
2022-07-28T05:50:22.277Z,1.25
2022-07-28T05:52:51.240Z,1.50
2022-07-28T05:55:19.205Z,1.70
2022-07-28T05:57:46.798Z,1.30
2022-07-28T06:00:19.697Z,1.70
2022-07-28T06:02:49.639Z,1.83
2022-07-28T06:05:22.524Z,1.48
2022-07-28T06:07:51.216Z,1.77
2022-07-28T06:10:23.118Z,1.63
2022-07-28T06:12:55.279Z,1.55
2022-07-28T06:15:27.957Z,1.40
2022-07-28T06:17:55.951Z,1.90
2022-07-28T06:20:24.543Z,1.83
2022-07-28T06:22:55.595Z,1.85
2022-07-28T06:25:26.787Z,1.85
2022-07-28T06:27:59.478Z,1.75
2022-07-28T06:30:27.660Z,1.52
2022-07-28T06:32:55.152Z,1.50
2022-07-28T06:35:23.513Z,1.60
2022-07-28T06:37:52.439Z,1.65
2022-07-28T06:40:21.463Z,1.80
2022-07-28T06:42:49.616Z,2.20
2022-07-28T06:45:21.023Z,1.88
2022-07-28T06:47:53.259Z,1.92
2022-07-28T06:50:25.744Z,2.05
2022-07-28T06:52:59.152Z,1.95
2022-07-28T06:55:26.500Z,1.50
2022-07-28T06:58:04.221Z,1.67
2022-07-28T07:00:31.540Z,1.80
2022-07-28T07:03:00.405Z,1.77
2022-07-28T07:05:32.454Z,2.15
2022-07-28T07:08:02.674Z,1.80
2022-07-28T07:10:29.617Z,1.63
2022-07-28T07:12:56.537Z,2.10
2022-07-28T07:15:25.007Z,2.00
2022-07-28T07:17:54.200Z,1.60
2022-07-28T07:20:21.466Z,1.80
2022-07-28T07:22:49.939Z,2.08
2022-07-28T07:25:20.399Z,1.95
2022-07-28T07:27:47.744Z,2.15
2022-07-28T07:30:16.389Z,2.00
2022-07-28T07:32:44.444Z,2.03
2022-07-28T07:35:12.503Z,2.03
2022-07-28T07:37:40.630Z,2.08
2022-07-28T07:40:08.790Z,1.77
2022-07-28T07:42:35.954Z,2.05
2022-07-28T07:45:05.011Z,1.88
2022-07-28T07:47:31.958Z,1.80
2022-07-28T07:50:00.848Z,1.90
2022-07-28T07:52:30.754Z,7.20
2022-07-28T07:54:57.633Z,2.15
2022-07-28T07:57:24.543Z,2.25
2022-07-28T07:59:51.537Z,2.03
2022-07-28T08:02:19.859Z,1.77
2022-07-28T08:04:46.822Z,2.10
2022-07-28T08:07:15.332Z,2.22
2022-07-28T08:09:42.230Z,2.20
2022-07-28T08:12:10.690Z,2.00
2022-07-28T08:14:37.586Z,1.80
2022-07-28T08:17:04.868Z,1.80
2022-07-28T08:19:31.880Z,1.65
2022-07-28T08:21:58.855Z,2.00
2022-07-28T08:24:32.834Z,1.95
2022-07-28T08:27:04.479Z,1.75
2022-07-28T08:29:32.118Z,2.00
2022-07-28T08:31:59.339Z,1.50
2022-07-28T08:34:31.802Z,1.55
2022-07-28T08:37:04.453Z,1.23
2022-07-28T08:39:33.414Z,1.60
2022-07-28T08:42:15.696Z,1.40
2022-07-28T08:45:05.791Z,1.60
2022-07-28T08:47:45.956Z,1.63
2022-07-28T08:50:25.305Z,1.60
2022-07-28T08:52:53.346Z,1.58
2022-07-28T08:55:31.630Z,1.80
2022-07-28T08:58:00.812Z,1.70
2022-07-28T09:00:28.363Z,1.75
2022-07-28T09:02:56.013Z,1.45
2022-07-28T09:05:24.594Z,1.73
2022-07-28T09:07:55.580Z,1.70
2022-07-28T09:10:24.258Z,2.00
2022-07-28T09:12:51.743Z,1.52
2022-07-28T09:15:18.704Z,1.52
2022-07-28T09:17:46.059Z,1.50
2022-07-28T09:20:13.959Z,1.60
2022-07-28T09:23:02.914Z,1.65
2022-07-28T09:25:31.433Z,1.55
2022-07-28T09:28:13.525Z,1.65
2022-07-28T09:30:52.498Z,2.58
2022-07-28T09:33:42.990Z,1.90
2022-07-28T09:36:16.151Z,1.50
2022-07-28T09:38:43.618Z,1.58
2022-07-28T09:41:11.137Z,1.60
2022-07-28T09:43:42.573Z,1.60
2022-07-28T09:46:23.375Z,1.50
2022-07-28T09:48:50.870Z,1.40
2022-07-28T09:51:22.366Z,1.67
2022-07-28T09:53:50.380Z,1.98
2022-07-28T09:56:17.478Z,1.80
2022-07-28T09:58:59.432Z,1.60
2022-07-28T10:01:29.200Z,1.55
2022-07-28T10:04:04.400Z,1.77
2022-07-28T10:06:33.798Z,1.98
2022-07-28T10:09:04.273Z,1.52
2022-07-28T10:11:32.111Z,1.50
2022-07-28T10:14:05.601Z,1.67
2022-07-28T10:16:35.391Z,1.70
2022-07-28T10:19:05.580Z,1.40
2022-07-28T10:21:36.569Z,1.73
2022-07-28T10:24:07.214Z,1.70
2022-07-28T10:26:40.123Z,1.30
2022-07-28T10:29:08.642Z,1.65
2022-07-28T10:31:59.171Z,1.20
2022-07-28T10:34:38.145Z,1.30
2022-07-28T10:37:10.588Z,1.20
2022-07-28T10:39:49.721Z,1.40
2022-07-28T10:42:17.261Z,1.25
2022-07-28T10:44:45.476Z,1.13
2022-07-28T10:47:18.171Z,1.70
2022-07-28T10:49:50.505Z,1.25
2022-07-28T10:52:45.739Z,1.25
2022-07-28T10:55:12.291Z,1.45
2022-07-28T11:01:05.040Z,1.20
2022-07-28T11:03:47.981Z,1.13
2022-07-28T11:06:34.780Z,1.45
2022-07-28T11:09:17.135Z,1.20
2022-07-28T11:11:51.468Z,1.25
2022-07-28T11:14:25.884Z,1.40
2022-07-28T11:17:04.922Z,1.25
2022-07-28T11:20:16.811Z,1.40
2022-07-28T11:22:42.021Z,1.45
2022-07-28T11:25:20.286Z,1.27
2022-07-28T11:27:52.246Z,1.17
2022-07-28T11:30:20.214Z,1.13
2022-07-28T11:32:59.397Z,1.20
2022-07-28T11:35:31.273Z,1.58
2022-07-28T11:38:01.412Z,1.10
2022-07-28T11:40:56.494Z,1.48
2022-07-28T11:43:30.626Z,1.20
2022-07-28T11:46:11.428Z,1.38
2022-07-28T11:48:45.029Z,1.05
2022-07-28T11:51:13.964Z,1.15
2022-07-28T11:53:50.388Z,1.42
2022-07-28T11:56:32.178Z,1.30
2022-07-28T11:59:02.703Z,1.15
2022-07-28T12:01:31.881Z,1.10
2022-07-28T12:04:00.992Z,1.15
2022-07-28T12:06:40.455Z,1.08
2022-07-28T12:09:10.300Z,1.20
2022-07-28T12:11:43.652Z,1.00
2022-07-28T12:14:17.182Z,1.10
2022-07-28T12:16:46.456Z,1.10
2022-07-28T12:19:20.372Z,1.10
2022-07-28T12:21:53.685Z,1.63
2022-07-28T12:24:45.038Z,1.10
2022-07-28T12:27:14.751Z,1.00
2022-07-28T12:29:42.658Z,1.17
2022-07-28T12:32:10.221Z,1.17
2022-07-28T12:34:39.952Z,1.42
2022-07-28T12:37:12.647Z,1.48
2022-07-28T12:39:42.654Z,1.30
2022-07-28T12:42:12.229Z,1.20
2022-07-28T12:44:42.033Z,1.35
2022-07-28T12:47:12.717Z,1.23
2022-07-28T12:49:42.367Z,1.13
2022-07-28T12:52:23.266Z,1.35
2022-07-28T12:54:55.471Z,1.30
2022-07-28T12:57:50.612Z,1.40
2022-07-28T13:00:32.152Z,1.27
2022-07-28T13:03:02.117Z,1.20
2022-07-28T13:05:59.493Z,1.60
2022-07-28T13:08:27.259Z,1.30
2022-07-28T13:10:59.035Z,1.00
2022-07-28T13:13:26.814Z,1.20
2022-07-28T13:16:18.638Z,1.13
2022-07-28T13:18:53.565Z,1.00
2022-07-28T13:21:57.320Z,1.33
2022-07-28T13:24:27.817Z,1.30
2022-07-28T13:26:55.706Z,1.10
2022-07-28T13:29:22.895Z,0.88
2022-07-28T13:31:50.599Z,1.10
2022-07-28T13:34:17.963Z,1.08
2022-07-28T13:36:45.143Z,1.13
2022-07-28T13:39:13.932Z,0.95
2022-07-28T13:41:56.118Z,1.48
2022-07-28T13:44:30.895Z,1.23
2022-07-28T13:46:59.617Z,0.98
2022-07-28T13:49:28.860Z,1.38
2022-07-28T13:51:56.270Z,1.40
2022-07-28T13:54:25.017Z,1.20
2022-07-28T13:56:53.029Z,1.73
2022-07-28T13:59:20.928Z,1.50
2022-07-28T14:01:49.740Z,1.67
2022-07-28T14:04:19.068Z,1.52
2022-07-28T14:06:48.656Z,2.00
2022-07-28T14:09:18.559Z,2.00
2022-07-28T14:11:49.267Z,2.13
2022-07-28T14:14:20.462Z,1.63
2022-07-28T14:16:55.239Z,1.77
2022-07-28T14:19:37.758Z,2.10
2022-07-28T14:22:10.461Z,1.83
2022-07-28T14:24:40.682Z,1.90
2022-07-28T14:27:07.655Z,1.60
2022-07-28T14:29:37.578Z,1.65
2022-07-28T14:32:05.113Z,1.48
2022-07-28T14:34:32.132Z,1.20
2022-07-28T14:37:04.881Z,1.30
2022-07-28T14:39:37.790Z,1.60
2022-07-28T14:42:06.242Z,1.55
2022-07-28T14:44:33.769Z,1.40
2022-07-28T14:47:00.775Z,1.40
2022-07-28T14:49:28.178Z,1.30
2022-07-28T14:51:57.441Z,1.23
2022-07-28T14:54:24.376Z,1.35
2022-07-28T14:56:51.983Z,1.40
2022-07-28T14:59:19.047Z,0.93
2022-07-28T15:01:48.635Z,1.42
2022-07-28T15:04:16.662Z,1.00
2022-07-28T15:06:44.111Z,1.15
2022-07-28T15:09:11.233Z,1.40
2022-07-28T15:11:39.750Z,1.00
2022-07-28T15:14:07.154Z,1.10
2022-07-28T15:16:34.147Z,1.08
2022-07-28T15:19:01.070Z,1.10
2022-07-28T15:21:32.970Z,1.27
2022-07-28T15:24:04.071Z,0.90
2022-07-28T15:26:31.056Z,1.27
2022-07-28T15:28:58.077Z,1.33
2022-07-28T15:31:26.084Z,1.13
2022-07-28T15:33:58.010Z,1.30
2022-07-28T15:36:25.798Z,1.38
2022-07-28T15:38:54.003Z,1.20
2022-07-28T15:41:21.633Z,1.13
2022-07-28T15:43:48.679Z,1.13
2022-07-28T15:46:16.079Z,1.17
2022-07-28T15:48:44.658Z,1.15
2022-07-28T15:51:12.554Z,1.17
2022-07-28T15:53:41.223Z,1.15
2022-07-28T15:56:09.011Z,0.93
2022-07-28T15:58:36.640Z,1.08
2022-07-28T16:01:04.449Z,1.00
2022-07-28T16:03:31.406Z,0.90
2022-07-28T16:05:58.913Z,1.08
2022-07-28T16:08:26.913Z,1.25
2022-07-28T16:10:54.561Z,1.17
2022-07-28T16:13:36.602Z,1.10
2022-07-28T16:16:10.429Z,1.17
2022-07-28T16:18:40.440Z,1.35
2022-07-28T16:21:10.828Z,1.10
2022-07-28T16:23:38.132Z,1.08
2022-07-28T16:26:07.995Z,1.00
2022-07-28T16:28:36.294Z,1.08
2022-07-28T16:31:03.367Z,1.20
2022-07-28T16:33:33.136Z,0.98
2022-07-28T16:36:02.266Z,1.10
2022-07-28T16:38:29.418Z,1.23
2022-07-28T16:40:57.673Z,1.27
2022-07-28T16:43:24.722Z,1.30
2022-07-28T16:45:51.982Z,1.15
2022-07-28T16:48:19.021Z,1.10
2022-07-28T16:50:46.291Z,1.00
2022-07-28T16:53:14.228Z,1.30
2022-07-28T16:55:44.687Z,1.40
2022-07-28T16:58:11.592Z,1.10
2022-07-28T17:00:38.548Z,1.20
2022-07-28T17:03:05.481Z,1.00
2022-07-28T17:05:32.462Z,1.10
2022-07-28T17:07:59.395Z,1.10
2022-07-28T17:10:27.639Z,1.10
2022-07-28T17:12:55.692Z,1.30
2022-07-28T17:15:23.545Z,1.08
2022-07-28T17:17:56.045Z,1.10
2022-07-28T17:20:25.123Z,1.00
2022-07-28T17:22:52.137Z,0.98
2022-07-28T17:25:45.671Z,1.05
2022-07-28T17:28:08.039Z,1.00
2022-07-28T17:30:35.368Z,1.05
2022-07-28T17:33:08.712Z,1.10
2022-07-28T17:35:37.083Z,1.20
2022-07-28T17:38:08.334Z,1.00
2022-07-28T17:40:38.222Z,0.90
2022-07-28T17:43:05.235Z,1.08
2022-07-28T17:45:32.204Z,1.20
2022-07-28T17:47:59.119Z,1.10
2022-07-28T17:50:26.060Z,1.20
2022-07-28T17:52:52.950Z,1.08
2022-07-28T17:55:57.853Z,1.35
2022-07-28T17:58:27.815Z,1.30
2022-07-28T18:01:12.055Z,1.33
2022-07-28T18:03:56.533Z,1.02
2022-07-28T18:06:29.717Z,1.40
2022-07-28T18:08:57.475Z,1.25
2022-07-28T18:11:32.702Z,0.95
2022-07-28T18:14:03.892Z,1.10
2022-07-28T18:16:34.303Z,1.05
2022-07-28T18:19:02.955Z,0.90
2022-07-28T18:21:30.092Z,1.20
2022-07-28T18:23:57.042Z,1.10
2022-07-28T18:26:24.001Z,1.25
2022-07-28T18:28:51.109Z,0.93
2022-07-28T18:31:18.375Z,1.23
2022-07-28T18:33:45.504Z,1.00
2022-07-28T18:36:12.443Z,1.15
2022-07-28T18:38:40.029Z,1.10
2022-07-28T18:41:06.952Z,1.05
2022-07-28T18:43:33.808Z,1.33
2022-07-28T18:46:00.880Z,1.00
2022-07-28T18:48:27.845Z,1.02
2022-07-28T18:50:54.802Z,1.10
2022-07-28T18:53:21.888Z,1.23
2022-07-28T18:55:48.817Z,1.10
2022-07-28T18:58:15.769Z,1.42
2022-07-28T19:00:42.690Z,1.10
2022-07-28T19:03:09.715Z,1.15
2022-07-28T19:05:37.445Z,1.40
2022-07-28T19:08:05.688Z,1.33
2022-07-28T19:10:32.736Z,1.15
2022-07-28T19:13:00.171Z,1.20
2022-07-28T19:15:27.111Z,1.20
2022-07-28T19:18:09.766Z,1.20
2022-07-28T19:20:39.988Z,1.55
2022-07-28T19:23:07.099Z,1.40
2022-07-28T19:25:36.557Z,1.20
2022-07-28T19:28:04.799Z,1.20
2022-07-28T19:30:32.401Z,1.30
2022-07-28T19:33:00.153Z,1.10
2022-07-28T19:35:27.356Z,1.48
2022-07-28T19:37:56.525Z,1.50
2022-07-28T19:40:25.557Z,1.30
2022-07-28T19:42:53.508Z,1.15
2022-07-28T19:45:20.560Z,1.33
2022-07-28T19:47:49.831Z,1.20
2022-07-28T19:50:17.655Z,1.20
2022-07-28T19:52:44.569Z,1.30
2022-07-28T19:55:12.803Z,1.17
2022-07-28T19:57:45.482Z,1.42
2022-07-28T20:00:13.466Z,1.10
2022-07-28T20:02:40.822Z,1.25
2022-07-28T20:05:08.885Z,1.30
2022-07-28T20:07:36.718Z,1.30
2022-07-28T20:10:05.127Z,1.27
2022-07-28T20:12:36.423Z,1.60
2022-07-28T20:15:07.848Z,1.30
2022-07-28T20:17:38.521Z,1.70
2022-07-28T20:20:13.426Z,1.70
2022-07-28T20:22:42.304Z,1.60
2022-07-28T20:25:10.954Z,2.00
2022-07-28T20:27:40.520Z,1.27
2022-07-28T20:30:13.227Z,1.58
2022-07-28T20:32:42.235Z,1.42
2022-07-28T20:35:10.880Z,1.10
2022-07-28T20:37:38.405Z,1.50
2022-07-28T20:40:10.152Z,1.58
2022-07-28T20:42:37.394Z,1.52
2022-07-28T20:45:05.544Z,1.65
2022-07-28T20:47:33.635Z,1.30
2022-07-28T20:50:01.464Z,1.25
2022-07-28T20:52:28.922Z,1.70
2022-07-28T20:54:55.821Z,1.20
2022-07-28T20:57:23.411Z,1.25
2022-07-28T20:59:52.186Z,1.48
2022-07-28T21:02:24.437Z,1.08
2022-07-28T21:04:51.869Z,1.50
2022-07-28T21:08:00.306Z,1.30
2022-07-28T21:10:08.418Z,1.42
2022-07-28T21:12:37.484Z,1.20
2022-07-28T21:15:09.286Z,1.20
2022-07-28T21:17:36.920Z,1.10
2022-07-28T21:20:05.980Z,1.20
2022-07-28T21:22:33.064Z,1.50
2022-07-28T21:25:00.153Z,0.95
2022-07-28T21:27:27.204Z,0.98
2022-07-28T21:32:19.806Z,1.05
2022-07-28T21:34:46.746Z,1.17
2022-07-28T21:37:14.246Z,1.20
2022-07-28T21:39:41.391Z,1.10
2022-07-28T21:42:09.418Z,1.08
2022-07-28T21:44:37.567Z,0.80
2022-07-28T21:47:05.327Z,1.08
2022-07-28T21:49:32.630Z,1.10
2022-07-28T21:52:00.037Z,1.10
2022-07-28T21:54:27.233Z,1.15
2022-07-28T21:56:54.298Z,1.00
2022-07-28T21:59:21.268Z,1.20
2022-07-28T22:01:48.442Z,1.08
2022-07-28T22:04:16.219Z,1.20
2022-07-28T22:06:46.042Z,1.42
2022-07-28T22:09:14.933Z,1.02
2022-07-28T22:11:42.374Z,1.20
2022-07-28T22:14:10.288Z,0.90
2022-07-28T22:16:37.825Z,1.20
2022-07-28T22:19:05.143Z,0.90
2022-07-28T22:21:32.383Z,1.20
2022-07-28T22:23:59.511Z,1.15
2022-07-28T22:26:26.691Z,1.20
2022-07-28T22:28:53.575Z,1.10
2022-07-28T22:31:20.528Z,1.20
2022-07-28T22:33:47.544Z,1.20
2022-07-28T22:36:14.508Z,1.08
2022-07-28T22:38:41.434Z,1.00
2022-07-28T22:41:09.752Z,1.05
2022-07-28T22:43:37.210Z,1.00
2022-07-28T22:46:04.167Z,1.20
2022-07-28T22:48:31.899Z,1.00
2022-07-28T22:50:58.927Z,1.10
2022-07-28T22:53:25.854Z,1.23
2022-07-28T22:58:37.417Z,1.15
2022-07-28T23:01:05.955Z,1.38
2022-07-28T23:03:34.610Z,1.13
2022-07-28T23:06:03.671Z,1.40
2022-07-28T23:08:30.788Z,1.25
2022-07-28T23:10:57.768Z,1.60
2022-07-28T23:13:24.753Z,1.67
2022-07-28T23:15:51.901Z,1.55
2022-07-28T23:18:18.872Z,1.80
2022-07-28T23:20:45.976Z,2.25
2022-07-28T23:23:14.850Z,2.42
2022-07-28T23:25:42.981Z,2.05
2022-07-28T23:28:11.391Z,2.47
2022-07-28T23:30:38.906Z,2.63
2022-07-28T23:33:06.637Z,3.08
2022-07-28T23:35:35.830Z,2.97
2022-07-28T23:38:03.475Z,3.22
2022-07-28T23:40:30.645Z,3.22
2022-07-28T23:42:57.801Z,3.47
2022-07-28T23:45:25.076Z,3.28
2022-07-28T23:47:56.459Z,3.30
2022-07-28T23:50:26.589Z,3.67
2022-07-28T23:52:53.538Z,3.58
2022-07-28T23:55:20.694Z,3.67
2022-07-28T23:57:47.789Z,3.20
